sensor_id;sensor_type;location;lat;lon;timestamp;pressure;altitude;pressure_sealevel;temperature;humidity
26112;BME280;13829;48.990;8.346;2023-02-16T00:00:32;101655.22;;;2.37;100.00
26112;BME280;13829;48.990;8.346;2023-02-16T00:03:00;101659.16;;;2.16;100.00
26112;BME280;13829;48.990;8.346;2023-02-16T00:05:30;101659.97;;;2.30;100.00
26112;BME280;13829;48.990;8.346;2023-02-16T00:07:59;101659.22;;;2.02;100.00
26112;BME280;13829;48.990;8.346;2023-02-16T00:10:32;101644.00;;;2.08;100.00
26112;BME280;13829;48.990;8.346;2023-02-16T00:13:00;101651.13;;;1.98;100.00
26112;BME280;13829;48.990;8.346;2023-02-16T00:15:44;101651.72;;;2.22;100.00
26112;BME280;13829;48.990;8.346;2023-02-16T00:18:19;101638.81;;;2.08;100.00
26112;BME280;13829;48.990;8.346;2023-02-16T00:20:48;101652.44;;;2.19;100.00
26112;BME280;13829;48.990;8.346;2023-02-16T00:23:15;101650.09;;;1.94;100.00
26112;BME280;13829;48.990;8.346;2023-02-16T00:25:42;101649.03;;;2.05;100.00
26112;BME280;13829;48.990;8.346;2023-02-16T00:28:15;101653.13;;;2.02;100.00
26112;BME280;13829;48.990;8.346;2023-02-16T00:30:43;101649.13;;;2.07;100.00
26112;BME280;13829;48.990;8.346;2023-02-16T00:33:15;101634.00;;;2.15;100.00
26112;BME280;13829;48.990;8.346;2023-02-16T00:35:43;101647.78;;;2.14;100.00
26112;BME280;13829;48.990;8.346;2023-02-16T00:38:10;101639.53;;;2.21;100.00
26112;BME280;13829;48.990;8.346;2023-02-16T00:40:37;101636.38;;;2.11;100.00
26112;BME280;13829;48.990;8.346;2023-02-16T00:43:05;101640.34;;;2.05;100.00
26112;BME280;13829;48.990;8.346;2023-02-16T00:45:35;101643.63;;;2.02;100.00
26112;BME280;13829;48.990;8.346;2023-02-16T00:48:03;101638.81;;;2.08;100.00
26112;BME280;13829;48.990;8.346;2023-02-16T00:50:33;101636.13;;;2.07;100.00
26112;BME280;13829;48.990;8.346;2023-02-16T00:53:01;101647.22;;;2.04;100.00
26112;BME280;13829;48.990;8.346;2023-02-16T00:55:30;101657.09;;;2.25;100.00
26112;BME280;13829;48.990;8.346;2023-02-16T00:58:06;101648.66;;;1.99;100.00
26112;BME280;13829;48.990;8.346;2023-02-16T01:00:37;101658.84;;;1.96;100.00
26112;BME280;13829;48.990;8.346;2023-02-16T01:03:10;101650.09;;;1.94;100.00
26112;BME280;13829;48.990;8.346;2023-02-16T01:05:40;101646.88;;;2.13;100.00
26112;BME280;13829;48.990;8.346;2023-02-16T01:08:12;101646.66;;;1.95;100.00
26112;BME280;13829;48.990;8.346;2023-02-16T01:10:57;101641.31;;;1.92;100.00
26112;BME280;13829;48.990;8.346;2023-02-16T01:13:40;101637.72;;;2.05;100.00
26112;BME280;13829;48.990;8.346;2023-02-16T01:16:14;101635.94;;;2.04;100.00
26112;BME280;13829;48.990;8.346;2023-02-16T01:18:41;101636.47;;;1.98;100.00
26112;BME280;13829;48.990;8.346;2023-02-16T01:21:09;101642.03;;;2.04;100.00
26112;BME280;13829;48.990;8.346;2023-02-16T01:23:38;101642.28;;;2.09;100.00
26112;BME280;13829;48.990;8.346;2023-02-16T01:26:11;101645.81;;;2.24;100.00
26112;BME280;13829;48.990;8.346;2023-02-16T01:28:41;101647.78;;;2.14;100.00
26112;BME280;13829;48.990;8.346;2023-02-16T01:31:09;101640.97;;;2.01;100.00
26112;BME280;13829;48.990;8.346;2023-02-16T01:33:36;101642.31;;;1.94;100.00
26112;BME280;13829;48.990;8.346;2023-02-16T01:36:04;101647.41;;;2.07;100.00
26112;BME280;13829;48.990;8.346;2023-02-16T01:38:32;101643.63;;;2.02;100.00
26112;BME280;13829;48.990;8.346;2023-02-16T01:41:20;101636.78;;;2.03;100.00
26112;BME280;13829;48.990;8.346;2023-02-16T01:43:54;101639.34;;;1.88;100.00
26112;BME280;13829;48.990;8.346;2023-02-16T01:46:32;101633.44;;;2.20;100.00
26112;BME280;13829;48.990;8.346;2023-02-16T01:49:02;101639.69;;;2.09;100.00
26112;BME280;13829;48.990;8.346;2023-02-16T01:51:35;101637.91;;;2.23;100.00
26112;BME280;13829;48.990;8.346;2023-02-16T01:54:13;101638.84;;;2.23;100.00
26112;BME280;13829;48.990;8.346;2023-02-16T01:56:49;101644.09;;;2.25;100.00
26112;BME280;13829;48.990;8.346;2023-02-16T01:59:30;101643.09;;;2.23;100.00
26112;BME280;13829;48.990;8.346;2023-02-16T02:02:02;101634.53;;;2.24;100.00
26112;BME280;13829;48.990;8.346;2023-02-16T02:04:39;101634.72;;;2.27;100.00
26112;BME280;13829;48.990;8.346;2023-02-16T02:07:31;101635.44;;;2.24;100.00
26112;BME280;13829;48.990;8.346;2023-02-16T02:10:10;101636.16;;;2.22;100.00
26112;BME280;13829;48.990;8.346;2023-02-16T02:12:48;101637.56;;;2.02;100.00
26112;BME280;13829;48.990;8.346;2023-02-16T02:15:20;101629.53;;;2.12;100.00
26112;BME280;13829;48.990;8.346;2023-02-16T02:17:49;101628.81;;;2.15;100.00
26112;BME280;13829;48.990;8.346;2023-02-16T02:20:22;101621.91;;;2.00;100.00
26112;BME280;13829;48.990;8.346;2023-02-16T02:23:38;101619.06;;;2.10;100.00
26112;BME280;13829;48.990;8.346;2023-02-16T02:27:00;101604.53;;;2.44;100.00
26112;BME280;13829;48.990;8.346;2023-02-16T02:30:06;101611.97;;;2.38;100.00
26112;BME280;13829;48.990;8.346;2023-02-16T02:32:59;101597.22;;;2.07;100.00
26112;BME280;13829;48.990;8.346;2023-02-16T02:35:46;101599.97;;;2.10;100.00
26112;BME280;13829;48.990;8.346;2023-02-16T02:38:24;101605.09;;;2.08;100.00
26112;BME280;13829;48.990;8.346;2023-02-16T02:41:03;101612.13;;;1.96;100.00
26112;BME280;13829;48.990;8.346;2023-02-16T02:43:41;101601.94;;;1.99;100.00
26112;BME280;13829;48.990;8.346;2023-02-16T02:46:16;101597.38;;;1.95;100.00
26112;BME280;13829;48.990;8.346;2023-02-16T02:48:45;101589.41;;;1.92;100.00
26112;BME280;13829;48.990;8.346;2023-02-16T02:51:13;101583.25;;;2.20;100.00
26112;BME280;13829;48.990;8.346;2023-02-16T02:54:02;101581.88;;;2.11;100.00
26112;BME280;13829;48.990;8.346;2023-02-16T02:56:55;101593.81;;;2.08;100.00
26112;BME280;13829;48.990;8.346;2023-02-16T02:59:46;101597.81;;;2.33;100.00
26112;BME280;13829;48.990;8.346;2023-02-16T03:02:35;101592.09;;;2.38;100.00
26112;BME280;13829;48.990;8.346;2023-02-16T03:05:07;101601.13;;;2.30;100.00
26112;BME280;13829;48.990;8.346;2023-02-16T03:07:37;101595.16;;;2.31;100.00
26112;BME280;13829;48.990;8.346;2023-02-16T03:10:17;101599.78;;;1.92;100.00
26112;BME280;13829;48.990;8.346;2023-02-16T03:13:09;101601.94;;;1.99;100.00
26112;BME280;13829;48.990;8.346;2023-02-16T03:15:39;101607.63;;;1.78;100.00
26112;BME280;13829;48.990;8.346;2023-02-16T03:18:09;101606.09;;;1.67;100.00
26112;BME280;13829;48.990;8.346;2023-02-16T03:20:56;101606.38;;;1.72;100.00
26112;BME280;13829;48.990;8.346;2023-02-16T03:23:43;101607.63;;;1.78;100.00
26112;BME280;13829;48.990;8.346;2023-02-16T03:26:29;101603.19;;;1.91;100.00
26112;BME280;13829;48.990;8.346;2023-02-16T03:29:16;101602.47;;;1.93;100.00
26112;BME280;13829;48.990;8.346;2023-02-16T03:31:51;101604.81;;;1.89;100.00
26112;BME280;13829;48.990;8.346;2023-02-16T03:34:21;101612.75;;;1.92;100.00
26112;BME280;13829;48.990;8.346;2023-02-16T03:36:54;101601.31;;;1.88;100.00
26112;BME280;13829;48.990;8.346;2023-02-16T03:39:25;101595.03;;;1.85;100.00
26112;BME280;13829;48.990;8.346;2023-02-16T03:41:55;101593.88;;;1.94;100.00
26112;BME280;13829;48.990;8.346;2023-02-16T03:44:23;101594.56;;;1.77;100.00
26112;BME280;13829;48.990;8.346;2023-02-16T03:46:52;101588.13;;;1.70;100.00
26112;BME280;13829;48.990;8.346;2023-02-16T03:49:19;101586.00;;;1.78;100.00
26112;BME280;13829;48.990;8.346;2023-02-16T03:51:46;101590.41;;;1.94;100.00
26112;BME280;13829;48.990;8.346;2023-02-16T03:54:13;101601.50;;;1.91;100.00
26112;BME280;13829;48.990;8.346;2023-02-16T03:56:40;101602.84;;;2.00;100.00
26112;BME280;13829;48.990;8.346;2023-02-16T03:59:07;101608.75;;;1.97;100.00
26112;BME280;13829;48.990;8.346;2023-02-16T04:01:34;101602.81;;;1.85;100.00
26112;BME280;13829;48.990;8.346;2023-02-16T04:04:02;101616.34;;;1.94;100.00
26112;BME280;13829;48.990;8.346;2023-02-16T04:06:29;101607.84;;;1.82;100.00
26112;BME280;13829;48.990;8.346;2023-02-16T04:08:56;101609.25;;;1.76;100.00
26112;BME280;13829;48.990;8.346;2023-02-16T04:11:23;101595.66;;;1.81;100.00
26112;BME280;13829;48.990;8.346;2023-02-16T04:14:07;101598.72;;;2.03;100.00
26112;BME280;13829;48.990;8.346;2023-02-16T04:16:34;101591.56;;;1.99;100.00
26112;BME280;13829;48.990;8.346;2023-02-16T04:19:03;101595.03;;;1.85;100.00
26112;BME280;13829;48.990;8.346;2023-02-16T04:21:30;101602.06;;;1.57;100.00
26112;BME280;13829;48.990;8.346;2023-02-16T04:23:57;101607.97;;;1.55;100.00
26112;BME280;13829;48.990;8.346;2023-02-16T04:26:24;101620.31;;;1.59;100.00
26112;BME280;13829;48.990;8.346;2023-02-16T04:28:51;101610.47;;;1.68;100.00
26112;BME280;13829;48.990;8.346;2023-02-16T04:31:18;101606.03;;;1.81;100.00
26112;BME280;13829;48.990;8.346;2023-02-16T04:33:45;101610.34;;;1.80;100.00
26112;BME280;13829;48.990;8.346;2023-02-16T04:36:13;101613.53;;;1.76;100.00
26112;BME280;13829;48.990;8.346;2023-02-16T04:38:40;101619.59;;;1.61;100.00
26112;BME280;13829;48.990;8.346;2023-02-16T04:41:07;101618.72;;;1.76;100.00
26112;BME280;13829;48.990;8.346;2023-02-16T04:43:34;101614.34;;;1.75;100.00
26112;BME280;13829;48.990;8.346;2023-02-16T04:46:01;101603.53;;;1.82;100.00
26112;BME280;13829;48.990;8.346;2023-02-16T04:48:28;101608.19;;;1.88;100.00
26112;BME280;13829;48.990;8.346;2023-02-16T04:50:55;101599.06;;;1.79;100.00
26112;BME280;13829;48.990;8.346;2023-02-16T04:53:23;101613.97;;;1.84;100.00
26112;BME280;13829;48.990;8.346;2023-02-16T04:55:50;101613.38;;;1.44;100.00
26112;BME280;13829;48.990;8.346;2023-02-16T04:58:17;101607.19;;;1.42;100.00
26112;BME280;13829;48.990;8.346;2023-02-16T05:00:44;101608.41;;;1.62;100.00
26112;BME280;13829;48.990;8.346;2023-02-16T05:03:11;101612.44;;;1.57;100.00
26112;BME280;13829;48.990;8.346;2023-02-16T05:05:38;101607.84;;;1.53;100.00
26112;BME280;13829;48.990;8.346;2023-02-16T05:08:05;101604.22;;;1.65;100.00
26112;BME280;13829;48.990;8.346;2023-02-16T05:10:33;101605.66;;;1.74;100.00
26112;BME280;13829;48.990;8.346;2023-02-16T05:13:01;101612.56;;;1.45;100.00
26112;BME280;13829;48.990;8.346;2023-02-16T05:15:45;101612.78;;;1.49;100.00
26112;BME280;13829;48.990;8.346;2023-02-16T05:18:12;101615.28;;;1.47;100.00
26112;BME280;13829;48.990;8.346;2023-02-16T05:20:39;101614.56;;;1.50;100.00
26112;BME280;13829;48.990;8.346;2023-02-16T05:23:24;101613.72;;;1.51;100.00
26112;BME280;13829;48.990;8.346;2023-02-16T05:25:52;101612.56;;;1.45;100.00
26112;BME280;13829;48.990;8.346;2023-02-16T05:28:19;101600.78;;;1.51;100.00
26112;BME280;13829;48.990;8.346;2023-02-16T05:30:46;101609.31;;;1.63;100.00
26112;BME280;13829;48.990;8.346;2023-02-16T05:33:12;101610.09;;;1.47;100.00
26112;BME280;13829;48.990;8.346;2023-02-16T05:35:39;101608.88;;;1.70;100.00
26112;BME280;13829;48.990;8.346;2023-02-16T05:38:06;101618.72;;;1.61;100.00
26112;BME280;13829;48.990;8.346;2023-02-16T05:40:33;101610.34;;;1.52;100.00
26112;BME280;13829;48.990;8.346;2023-02-16T05:43:01;101606.34;;;1.57;100.00
26112;BME280;13829;48.990;8.346;2023-02-16T05:45:28;101600.69;;;1.77;100.00
26112;BME280;13829;48.990;8.346;2023-02-16T05:47:55;101608.78;;;1.69;100.00
26112;BME280;13829;48.990;8.346;2023-02-16T05:50:22;101613.97;;;1.84;100.00
26112;BME280;13829;48.990;8.346;2023-02-16T05:52:49;101614.41;;;1.61;100.00
26112;BME280;13829;48.990;8.346;2023-02-16T05:55:16;101622.28;;;1.63;100.00
26112;BME280;13829;48.990;8.346;2023-02-16T05:57:43;101611.16;;;1.51;100.00
26112;BME280;13829;48.990;8.346;2023-02-16T06:00:13;101608.25;;;1.74;100.00
26112;BME280;13829;48.990;8.346;2023-02-16T06:02:40;101618.75;;;1.91;100.00
26112;BME280;13829;48.990;8.346;2023-02-16T06:05:07;101621.78;;;1.84;100.00
26112;BME280;13829;48.990;8.346;2023-02-16T06:07:34;101621.22;;;1.74;100.00
26112;BME280;13829;48.990;8.346;2023-02-16T06:10:01;101616.19;;;1.62;100.00
26112;BME280;13829;48.990;8.346;2023-02-16T06:12:28;101616.53;;;1.54;100.00
26112;BME280;13829;48.990;8.346;2023-02-16T06:14:56;101610.47;;;1.68;100.00
26112;BME280;13829;48.990;8.346;2023-02-16T06:17:25;101620.38;;;1.89;100.00
26112;BME280;13829;48.990;8.346;2023-02-16T06:19:53;101622.59;;;1.83;100.00
26112;BME280;13829;48.990;8.346;2023-02-16T06:22:20;101625.19;;;1.98;100.00
26112;BME280;13829;48.990;8.346;2023-02-16T06:24:47;101621.97;;;1.87;100.00
26112;BME280;13829;48.990;8.346;2023-02-16T06:27:14;101624.50;;;2.00;100.00
26112;BME280;13829;48.990;8.346;2023-02-16T06:29:41;101621.22;;;1.74;100.00
26112;BME280;13829;48.990;8.346;2023-02-16T06:32:07;101622.47;;;1.81;100.00
26112;BME280;13829;48.990;8.346;2023-02-16T06:34:36;101628.59;;;1.82;100.00
26112;BME280;13829;48.990;8.346;2023-02-16T06:37:03;101638.97;;;1.82;100.00
26112;BME280;13829;48.990;8.346;2023-02-16T06:39:30;101644.47;;;1.73;100.00
26112;BME280;13829;48.990;8.346;2023-02-16T06:41:56;101637.97;;;1.79;100.00
26112;BME280;13829;48.990;8.346;2023-02-16T06:44:23;101639.06;;;1.55;100.00
26112;BME280;13829;48.990;8.346;2023-02-16T06:46:50;101639.28;;;1.73;100.00
26112;BME280;13829;48.990;8.346;2023-02-16T06:49:19;101639.00;;;1.68;100.00
26112;BME280;13829;48.990;8.346;2023-02-16T06:51:49;101639.25;;;1.58;100.00
26112;BME280;13829;48.990;8.346;2023-02-16T06:54:17;101643.16;;;1.51;100.00
26112;BME280;13829;48.990;8.346;2023-02-16T06:56:44;101641.06;;;1.45;100.00
26112;BME280;13829;48.990;8.346;2023-02-16T06:59:11;101636.41;;;1.68;100.00
26112;BME280;13829;48.990;8.346;2023-02-16T07:01:38;101640.50;;;1.65;100.00
26112;BME280;13829;48.990;8.346;2023-02-16T07:04:05;101645.63;;;1.63;100.00
26112;BME280;13829;48.990;8.346;2023-02-16T07:06:32;101653.22;;;1.60;100.00
26112;BME280;13829;48.990;8.346;2023-02-16T07:09:01;101653.78;;;1.69;100.00
26112;BME280;13829;48.990;8.346;2023-02-16T07:11:28;101658.53;;;1.76;100.00
26112;BME280;13829;48.990;8.346;2023-02-16T07:13:55;101654.66;;;1.98;100.00
26112;BME280;13829;48.990;8.346;2023-02-16T07:16:22;101664.88;;;2.25;100.00
26112;BME280;13829;48.990;8.346;2023-02-16T07:18:49;101662.47;;;2.13;100.00
26112;BME280;13829;48.990;8.346;2023-02-16T07:21:16;101657.81;;;2.22;100.00
26112;BME280;13829;48.990;8.346;2023-02-16T07:23:43;101662.94;;;2.36;100.00
26112;BME280;13829;48.990;8.346;2023-02-16T07:26:11;101664.69;;;2.37;100.00
26112;BME280;13829;48.990;8.346;2023-02-16T07:28:38;101663.78;;;2.21;100.00
26112;BME280;13829;48.990;8.346;2023-02-16T07:31:08;101664.06;;;2.26;100.00
26112;BME280;13829;48.990;8.346;2023-02-16T07:33:35;101661.03;;;2.33;100.00
26112;BME280;13829;48.990;8.346;2023-02-16T07:36:04;101659.16;;;2.31;100.00
26112;BME280;13829;48.990;8.346;2023-02-16T07:38:31;101661.94;;;2.49;100.00
26112;BME280;13829;48.990;8.346;2023-02-16T07:40:58;101655.84;;;2.18;100.00
26112;BME280;13829;48.990;8.346;2023-02-16T07:43:27;101649.59;;;2.30;100.00
26112;BME280;13829;48.990;8.346;2023-02-16T07:45:54;101661.84;;;2.32;100.00
26112;BME280;13829;48.990;8.346;2023-02-16T07:48:21;101656.81;;;2.35;100.00
26112;BME280;13829;48.990;8.346;2023-02-16T07:50:48;101660.94;;;2.17;100.00
26112;BME280;13829;48.990;8.346;2023-02-16T07:53:15;101660.31;;;2.51;100.00
26112;BME280;13829;48.990;8.346;2023-02-16T07:55:44;101660.13;;;2.48;100.00
26112;BME280;13829;48.990;8.346;2023-02-16T07:58:11;101667.63;;;2.28;100.00
26112;BME280;13829;48.990;8.346;2023-02-16T08:00:54;101665.75;;;2.25;100.00
26112;BME280;13829;48.990;8.346;2023-02-16T08:03:21;101666.94;;;2.45;100.00
26112;BME280;13829;48.990;8.346;2023-02-16T08:05:48;101665.69;;;2.54;100.00
26112;BME280;13829;48.990;8.346;2023-02-16T08:08:15;101670.69;;;2.51;100.00
26112;BME280;13829;48.990;8.346;2023-02-16T08:10:41;101669.00;;;2.66;100.00
26112;BME280;13829;48.990;8.346;2023-02-16T08:13:08;101665.50;;;2.66;100.00
26112;BME280;13829;48.990;8.346;2023-02-16T08:15:35;101667.81;;;2.76;100.00
26112;BME280;13829;48.990;8.346;2023-02-16T08:18:03;101661.50;;;2.87;100.00
26112;BME280;13829;48.990;8.346;2023-02-16T08:20:30;101662.22;;;3.00;100.00
26112;BME280;13829;48.990;8.346;2023-02-16T08:22:57;101665.19;;;3.22;100.00
26112;BME280;13829;48.990;8.346;2023-02-16T08:25:24;101673.03;;;3.39;100.00
26112;BME280;13829;48.990;8.346;2023-02-16T08:27:51;101676.09;;;3.32;100.00
26112;BME280;13829;48.990;8.346;2023-02-16T08:30:19;101670.84;;;3.47;100.00
26112;BME280;13829;48.990;8.346;2023-02-16T08:32:46;101679.78;;;3.52;100.00
26112;BME280;13829;48.990;8.346;2023-02-16T08:35:17;101678.50;;;3.60;100.00
26112;BME280;13829;48.990;8.346;2023-02-16T08:37:45;101680.19;;;3.59;100.00
26112;BME280;13829;48.990;8.346;2023-02-16T08:40:12;101677.38;;;3.71;100.00
26112;BME280;13829;48.990;8.346;2023-02-16T08:42:39;101672.34;;;3.74;100.00
26112;BME280;13829;48.990;8.346;2023-02-16T08:45:07;101680.47;;;3.97;100.00
26112;BME280;13829;48.990;8.346;2023-02-16T08:47:34;101681.59;;;3.86;100.00
26112;BME280;13829;48.990;8.346;2023-02-16T08:50:01;101674.78;;;4.04;100.00
26112;BME280;13829;48.990;8.346;2023-02-16T08:52:29;101665.59;;;4.29;99.18
26112;BME280;13829;48.990;8.346;2023-02-16T08:54:56;101678.16;;;4.20;99.05
26112;BME280;13829;48.990;8.346;2023-02-16T08:57:23;101684.19;;;4.19;99.34
26112;BME280;13829;48.990;8.346;2023-02-16T08:59:50;101680.75;;;4.20;100.00
26112;BME280;13829;48.990;8.346;2023-02-16T09:02:37;101678.47;;;4.26;100.00
26112;BME280;13829;48.990;8.346;2023-02-16T09:05:05;101677.16;;;4.34;99.00
26112;BME280;13829;48.990;8.346;2023-02-16T09:07:33;101672.44;;;4.44;98.36
26112;BME280;13829;48.990;8.346;2023-02-16T09:10:00;101670.97;;;4.32;98.27
26112;BME280;13829;48.990;8.346;2023-02-16T09:12:27;101671.94;;;4.34;99.24
26112;BME280;13829;48.990;8.346;2023-02-16T09:14:55;101674.94;;;4.42;100.00
26112;BME280;13829;48.990;8.346;2023-02-16T09:17:23;101677.22;;;4.52;99.14
26112;BME280;13829;48.990;8.346;2023-02-16T09:19:51;101679.16;;;4.74;97.68
26112;BME280;13829;48.990;8.346;2023-02-16T09:22:18;101679.47;;;4.81;98.69
26112;BME280;13829;48.990;8.346;2023-02-16T09:24:47;101672.25;;;4.93;98.17
26112;BME280;13829;48.990;8.346;2023-02-16T09:27:14;101675.72;;;4.94;97.21
26112;BME280;13829;48.990;8.346;2023-02-16T09:29:41;101681.50;;;4.86;97.16
26112;BME280;13829;48.990;8.346;2023-02-16T09:32:08;101682.66;;;4.75;95.20
26112;BME280;13829;48.990;8.346;2023-02-16T09:34:36;101674.84;;;4.93;98.84
26112;BME280;13829;48.990;8.346;2023-02-16T09:37:03;101673.28;;;4.97;99.20
26112;BME280;13829;48.990;8.346;2023-02-16T09:39:30;101666.84;;;4.90;100.00
26112;BME280;13829;48.990;8.346;2023-02-16T09:42:14;101663.75;;;4.97;99.88
26112;BME280;13829;48.990;8.346;2023-02-16T09:44:55;101665.75;;;4.85;98.73
26112;BME280;13829;48.990;8.346;2023-02-16T09:47:27;101663.44;;;4.91;100.00
26112;BME280;13829;48.990;8.346;2023-02-16T09:49:57;101674.25;;;4.81;100.00
26112;BME280;13829;48.990;8.346;2023-02-16T09:52:34;101668.28;;;5.01;100.00
26112;BME280;13829;48.990;8.346;2023-02-16T09:55:07;101668.56;;;5.07;100.00
26112;BME280;13829;48.990;8.346;2023-02-16T09:57:53;101666.19;;;5.12;100.00
26112;BME280;13829;48.990;8.346;2023-02-16T10:00:39;101671.53;;;5.33;100.00
26112;BME280;13829;48.990;8.346;2023-02-16T10:03:45;101663.72;;;5.33;100.00
26112;BME280;13829;48.990;8.346;2023-02-16T10:06:28;101659.03;;;5.26;99.09
26112;BME280;13829;48.990;8.346;2023-02-16T10:09:02;101663.31;;;5.26;100.00
26112;BME280;13829;48.990;8.346;2023-02-16T10:11:37;101651.91;;;5.42;100.00
26112;BME280;13829;48.990;8.346;2023-02-16T10:14:24;101652.25;;;5.49;100.00
26112;BME280;13829;48.990;8.346;2023-02-16T10:17:05;101648.75;;;5.49;100.00
26112;BME280;13829;48.990;8.346;2023-02-16T10:19:39;101639.28;;;5.70;100.00
26112;BME280;13829;48.990;8.346;2023-02-16T10:22:13;101636.03;;;5.76;100.00
26112;BME280;13829;48.990;8.346;2023-02-16T10:24:53;101637.34;;;5.86;100.00
26112;BME280;13829;48.990;8.346;2023-02-16T10:27:28;101641.22;;;5.94;100.00
26112;BME280;13829;48.990;8.346;2023-02-16T10:30:00;101628.97;;;6.13;100.00
26112;BME280;13829;48.990;8.346;2023-02-16T10:32:34;101621.66;;;6.25;100.00
26112;BME280;13829;48.990;8.346;2023-02-16T10:35:13;101620.50;;;6.40;99.06
26112;BME280;13829;48.990;8.346;2023-02-16T10:37:58;101625.50;;;6.33;98.22
26112;BME280;13829;48.990;8.346;2023-02-16T10:40:38;101624.91;;;6.41;97.92
26112;BME280;13829;48.990;8.346;2023-02-16T10:43:15;101622.66;;;6.71;96.66
26112;BME280;13829;48.990;8.346;2023-02-16T10:45:50;101614.75;;;6.69;96.50
26112;BME280;13829;48.990;8.346;2023-02-16T10:48:18;101618.94;;;6.87;96.54
26112;BME280;13829;48.990;8.346;2023-02-16T10:50:54;101611.16;;;6.89;96.92
26112;BME280;13829;48.990;8.346;2023-02-16T10:53:35;101613.47;;;7.04;96.85
26112;BME280;13829;48.990;8.346;2023-02-16T10:56:33;101605.34;;;7.18;94.41
26112;BME280;13829;48.990;8.346;2023-02-16T10:59:06;101607.22;;;7.23;96.65
26112;BME280;13829;48.990;8.346;2023-02-16T11:01:37;101609.31;;;7.31;95.25
26112;BME280;13829;48.990;8.346;2023-02-16T11:04:05;101604.63;;;7.47;96.07
26112;BME280;13829;48.990;8.346;2023-02-16T11:06:32;101604.53;;;7.44;94.75
26112;BME280;13829;48.990;8.346;2023-02-16T11:09:01;101596.97;;;7.76;94.51
26112;BME280;13829;48.990;8.346;2023-02-16T11:11:38;101597.50;;;7.91;93.56
26112;BME280;13829;48.990;8.346;2023-02-16T11:14:20;101592.84;;;8.08;92.98
26112;BME280;13829;48.990;8.346;2023-02-16T11:17:04;101591.53;;;8.21;93.49
26112;BME280;13829;48.990;8.346;2023-02-16T11:19:34;101579.56;;;8.29;91.67
26112;BME280;13829;48.990;8.346;2023-02-16T11:22:02;101580.53;;;8.31;92.32
26112;BME280;13829;48.990;8.346;2023-02-16T11:24:31;101574.22;;;8.52;91.26
26112;BME280;13829;48.990;8.346;2023-02-16T11:27:01;101575.72;;;8.45;91.68
26112;BME280;13829;48.990;8.346;2023-02-16T11:29:29;101579.03;;;8.40;91.90
26112;BME280;13829;48.990;8.346;2023-02-16T11:32:04;101575.47;;;8.63;91.44
26112;BME280;13829;48.990;8.346;2023-02-16T11:34:35;101570.16;;;8.89;88.31
26112;BME280;13829;48.990;8.346;2023-02-16T11:37:06;101567.41;;;9.15;88.21
26112;BME280;13829;48.990;8.346;2023-02-16T11:39:40;101571.25;;;9.26;87.08
26112;BME280;13829;48.990;8.346;2023-02-16T11:42:26;101560.94;;;9.33;86.37
26112;BME280;13829;48.990;8.346;2023-02-16T11:44:57;101558.06;;;9.55;85.53
26112;BME280;13829;48.990;8.346;2023-02-16T11:47:29;101548.56;;;9.60;84.18
26112;BME280;13829;48.990;8.346;2023-02-16T11:50:20;101541.78;;;9.69;85.17
26112;BME280;13829;48.990;8.346;2023-02-16T11:52:51;101527.34;;;9.86;85.12
26112;BME280;13829;48.990;8.346;2023-02-16T11:55:24;101521.81;;;10.10;83.85
26112;BME280;13829;48.990;8.346;2023-02-16T11:57:53;101516.16;;;10.28;81.14
26112;BME280;13829;48.990;8.346;2023-02-16T12:00:23;101504.84;;;10.33;81.83
26112;BME280;13829;48.990;8.346;2023-02-16T12:03:15;101502.66;;;10.51;81.49
26112;BME280;13829;48.990;8.346;2023-02-16T12:06:06;101501.53;;;10.78;79.84
26112;BME280;13829;48.990;8.346;2023-02-16T12:08:54;101496.63;;;10.97;77.65
26112;BME280;13829;48.990;8.346;2023-02-16T12:11:34;101495.97;;;11.07;76.17
26112;BME280;13829;48.990;8.346;2023-02-16T12:14:19;101498.53;;;11.02;76.70
26112;BME280;13829;48.990;8.346;2023-02-16T12:16:57;101489.84;;;11.08;77.37
26112;BME280;13829;48.990;8.346;2023-02-16T12:19:39;101489.00;;;11.09;77.04
26112;BME280;13829;48.990;8.346;2023-02-16T12:22:25;101484.72;;;11.14;74.17
26112;BME280;13829;48.990;8.346;2023-02-16T12:25:14;101488.34;;;11.21;74.76
26112;BME280;13829;48.990;8.346;2023-02-16T12:27:51;101493.66;;;11.22;74.02
26112;BME280;13829;48.990;8.346;2023-02-16T12:30:35;101489.25;;;11.21;75.41
26112;BME280;13829;48.990;8.346;2023-02-16T12:33:22;101481.50;;;11.29;75.07
26112;BME280;13829;48.990;8.346;2023-02-16T12:36:10;101479.84;;;11.36;75.26
26112;BME280;13829;48.990;8.346;2023-02-16T12:38:53;101471.13;;;11.38;76.23
26112;BME280;13829;48.990;8.346;2023-02-16T12:41:42;101472.88;;;11.38;75.70
26112;BME280;13829;48.990;8.346;2023-02-16T12:44:15;101471.34;;;11.49;75.80
26112;BME280;13829;48.990;8.346;2023-02-16T12:46:45;101469.59;;;11.51;76.36
26112;BME280;13829;48.990;8.346;2023-02-16T12:49:19;101465.25;;;11.53;75.59
26112;BME280;13829;48.990;8.346;2023-02-16T12:51:55;101465.16;;;11.49;73.04
26112;BME280;13829;48.990;8.346;2023-02-16T12:54:28;101454.81;;;11.58;72.24
26112;BME280;13829;48.990;8.346;2023-02-16T12:57:02;101456.66;;;11.64;72.58
26112;BME280;13829;48.990;8.346;2023-02-16T12:59:37;101449.84;;;11.77;71.24
26112;BME280;13829;48.990;8.346;2023-02-16T13:02:19;101443.69;;;11.76;69.96
26112;BME280;13829;48.990;8.346;2023-02-16T13:04:55;101442.03;;;11.81;71.14
26112;BME280;13829;48.990;8.346;2023-02-16T13:07:30;101442.03;;;11.81;70.68
26112;BME280;13829;48.990;8.346;2023-02-16T13:10:11;101448.22;;;11.83;70.51
26112;BME280;13829;48.990;8.346;2023-02-16T13:12:46;101448.31;;;11.89;69.84
26112;BME280;13829;48.990;8.346;2023-02-16T13:15:20;101440.47;;;11.94;70.18
26112;BME280;13829;48.990;8.346;2023-02-16T13:17:55;101443.34;;;12.08;68.33
26112;BME280;13829;48.990;8.346;2023-02-16T13:20:24;101433.00;;;12.22;68.18